createdAt,value
2018-09-24T00:01:42.422Z,24.12
2018-09-24T00:04:08.412Z,24.12
2018-09-24T00:06:34.429Z,24.11
2018-09-24T00:09:00.380Z,24.11
2018-09-24T00:11:26.431Z,24.11
2018-09-24T00:13:52.439Z,24.11
2018-09-24T00:16:18.444Z,24.11
2018-09-24T00:18:44.453Z,24.11
2018-09-24T00:21:10.472Z,24.11
2018-09-24T00:23:36.456Z,24.11
2018-09-24T00:26:02.468Z,24.11
2018-09-24T00:28:28.444Z,24.10
2018-09-24T00:30:54.492Z,24.10
2018-09-24T00:33:20.502Z,24.11
2018-09-24T00:35:46.522Z,24.10
2018-09-24T00:38:12.530Z,24.11
2018-09-24T00:40:38.515Z,24.11
2018-09-24T00:43:04.610Z,24.10
2018-09-24T00:45:30.550Z,24.10
2018-09-24T00:47:56.532Z,24.11
2018-09-24T00:50:22.519Z,24.10
2018-09-24T00:52:48.500Z,24.10
2018-09-24T00:55:14.483Z,24.10
2018-09-24T00:57:40.493Z,24.10
2018-09-24T01:00:06.480Z,24.10
2018-09-24T01:02:32.468Z,24.11
2018-09-24T01:04:58.473Z,24.11
2018-09-24T01:07:24.501Z,24.10
2018-09-24T01:09:50.493Z,24.09
2018-09-24T01:12:16.542Z,24.09
2018-09-24T01:14:42.519Z,24.10
2018-09-24T01:17:08.534Z,24.10
2018-09-24T01:19:34.518Z,24.10
2018-09-24T01:22:00.530Z,24.08
2018-09-24T01:24:26.538Z,24.09
2018-09-24T01:26:52.525Z,24.09
2018-09-24T01:29:18.557Z,24.09
2018-09-24T01:31:44.571Z,24.09
2018-09-24T01:34:10.578Z,24.10
2018-09-24T01:36:36.584Z,24.09
2018-09-24T01:39:02.635Z,24.09
2018-09-24T01:41:28.659Z,24.09
2018-09-24T01:43:54.644Z,24.09
2018-09-24T01:46:20.669Z,24.08
2018-09-24T01:48:46.675Z,24.09
2018-09-24T01:51:12.687Z,24.09
2018-09-24T01:53:38.705Z,24.09
2018-09-24T01:56:04.687Z,24.08
2018-09-24T01:58:30.705Z,24.07
2018-09-24T02:00:56.688Z,24.07
2018-09-24T02:03:22.670Z,24.08
2018-09-24T02:05:48.676Z,24.07
2018-09-24T02:08:14.665Z,24.07
2018-09-24T02:10:40.668Z,24.08
2018-09-24T02:13:06.658Z,24.07
2018-09-24T02:15:32.681Z,24.06
2018-09-24T02:17:58.659Z,24.07
2018-09-24T02:20:24.668Z,24.08
2018-09-24T02:22:50.677Z,24.08
2018-09-24T02:25:16.656Z,24.07
2018-09-24T02:27:42.691Z,24.05
2018-09-24T02:30:08.742Z,24.07
2018-09-24T02:32:34.728Z,24.06
2018-09-24T02:35:00.739Z,24.06
2018-09-24T02:37:26.769Z,24.06
2018-09-24T02:39:52.746Z,24.05
2018-09-24T02:42:18.772Z,24.06
2018-09-24T02:44:44.756Z,24.06
2018-09-24T02:47:10.763Z,24.04
2018-09-24T02:49:36.777Z,24.05
2018-09-24T02:52:02.772Z,24.05
2018-09-24T02:54:28.759Z,24.04
2018-09-24T02:56:54.778Z,24.06
2018-09-24T02:59:20.760Z,24.06
2018-09-24T03:01:46.764Z,24.05
2018-09-24T03:04:12.747Z,24.05
2018-09-24T03:06:38.778Z,24.04
2018-09-24T03:09:04.768Z,24.04
2018-09-24T03:11:30.752Z,24.04
2018-09-24T03:13:56.742Z,24.04
2018-09-24T03:16:22.748Z,24.04
2018-09-24T03:18:48.739Z,24.03
2018-09-24T03:21:14.726Z,24.03
2018-09-24T03:23:40.742Z,24.04
2018-09-24T03:26:06.743Z,24.03
2018-09-24T03:28:32.706Z,24.03
2018-09-24T03:30:58.734Z,24.04
2018-09-24T03:33:24.745Z,24.04
2018-09-24T03:35:50.775Z,24.04
2018-09-24T03:38:16.756Z,24.03
2018-09-24T03:40:42.752Z,24.03
2018-09-24T03:43:08.750Z,24.04
2018-09-24T03:45:34.761Z,24.03
2018-09-24T03:48:00.800Z,24.03
2018-09-24T03:50:26.784Z,24.04
2018-09-24T03:52:52.773Z,24.03
2018-09-24T03:55:18.786Z,24.02
2018-09-24T03:57:44.777Z,24.02
2018-09-24T04:00:10.795Z,24.02
2018-09-24T04:02:36.809Z,24.02
2018-09-24T04:05:02.812Z,24.03
2018-09-24T04:07:28.810Z,24.02
2018-09-24T04:09:54.848Z,24.03
2018-09-24T04:12:20.842Z,24.02
2018-09-24T04:14:46.845Z,24.02
2018-09-24T04:17:12.862Z,24.03
2018-09-24T04:19:38.993Z,24.02
2018-09-24T04:22:04.900Z,24.02
2018-09-24T04:24:30.910Z,24.02
2018-09-24T04:26:56.883Z,24.01
2018-09-24T04:29:22.865Z,24.03
2018-09-24T04:31:48.848Z,24.04
2018-09-24T04:34:14.835Z,24.04
2018-09-24T04:36:40.846Z,24.04
2018-09-24T04:39:06.858Z,24.05
2018-09-24T04:41:32.870Z,24.06
2018-09-24T04:43:58.905Z,24.07
2018-09-24T04:46:24.885Z,24.08
2018-09-24T04:48:50.895Z,24.08
2018-09-24T04:51:16.906Z,24.08
2018-09-24T04:53:42.890Z,24.09
2018-09-24T04:56:08.886Z,24.09
2018-09-24T04:58:34.952Z,24.09
2018-09-24T05:01:00.909Z,24.10
2018-09-24T05:03:26.913Z,24.10
2018-09-24T05:05:52.922Z,24.10
2018-09-24T05:08:18.911Z,24.10
2018-09-24T05:10:44.917Z,24.10
2018-09-24T05:13:10.967Z,24.10
2018-09-24T05:15:36.982Z,24.11
2018-09-24T05:18:02.977Z,24.10
2018-09-24T05:20:28.965Z,24.09
2018-09-24T05:22:54.959Z,24.10
2018-09-24T05:25:20.949Z,24.10
2018-09-24T05:27:46.928Z,24.12
2018-09-24T05:30:13.102Z,24.12
2018-09-24T05:32:39.106Z,24.11
2018-09-24T05:35:05.114Z,24.11
2018-09-24T05:37:33.212Z,24.12
2018-09-24T05:39:59.210Z,24.12
2018-09-24T05:42:25.196Z,24.12
2018-09-24T05:44:51.201Z,24.14
2018-09-24T05:47:17.228Z,24.14
2018-09-24T05:49:43.363Z,24.15
2018-09-24T05:52:09.367Z,24.17
2018-09-24T05:54:35.374Z,24.18
2018-09-24T05:57:01.421Z,24.19
2018-09-24T05:59:27.478Z,24.19
2018-09-24T06:01:53.486Z,24.20
2018-09-24T06:04:19.502Z,24.21
2018-09-24T06:06:45.489Z,24.21
2018-09-24T06:09:11.472Z,24.22
2018-09-24T06:11:37.934Z,24.22
2018-09-24T06:14:04.570Z,24.24
2018-09-24T06:16:31.068Z,24.22
2018-09-24T06:18:57.113Z,24.23
2018-09-24T06:21:24.822Z,24.23
2018-09-24T06:23:56.321Z,24.22
2018-09-24T06:26:22.348Z,24.22
2018-09-24T06:28:48.325Z,24.22
2018-09-24T06:31:14.340Z,24.22
2018-09-24T06:33:40.389Z,24.23
2018-09-24T06:36:06.393Z,24.22
2018-09-24T06:38:32.385Z,24.22
2018-09-24T06:40:58.395Z,24.22
2018-09-24T06:43:24.442Z,24.22
2018-09-24T06:45:50.456Z,24.24
2018-09-24T06:48:16.468Z,24.23
2018-09-24T06:50:42.457Z,24.24
2018-09-24T06:53:08.471Z,24.25
2018-09-24T06:55:34.485Z,24.25
2018-09-24T06:58:00.498Z,24.24
2018-09-24T07:00:26.507Z,24.23
2018-09-24T07:02:52.513Z,24.23
2018-09-24T07:05:18.518Z,24.23
2018-09-24T07:07:44.520Z,24.22
2018-09-24T07:10:10.506Z,24.22
2018-09-24T07:12:36.492Z,24.23
2018-09-24T07:15:02.514Z,24.25
2018-09-24T07:17:28.556Z,24.25
2018-09-24T07:19:54.568Z,24.25
2018-09-24T07:22:20.618Z,24.27
2018-09-24T07:24:46.621Z,24.26
2018-09-24T07:27:12.624Z,24.26
2018-09-24T07:29:38.630Z,24.26
2018-09-24T07:32:04.649Z,24.28
2018-09-24T07:34:30.638Z,24.27
2018-09-24T07:36:56.624Z,24.27
2018-09-24T07:39:22.675Z,24.27
2018-09-24T07:41:48.691Z,24.28
2018-09-24T07:44:14.698Z,24.27
2018-09-24T07:46:40.733Z,24.27
2018-09-24T07:49:06.720Z,24.29
2018-09-24T07:51:32.707Z,24.28
2018-09-24T07:53:58.766Z,24.29
2018-09-24T07:56:24.776Z,24.28
2018-09-24T07:58:50.786Z,24.27
2018-09-24T08:01:16.846Z,24.28
2018-09-24T08:03:42.837Z,24.28
2018-09-24T08:06:08.842Z,24.29
2018-09-24T08:08:34.902Z,24.29
2018-09-24T08:11:00.951Z,24.29
2018-09-24T08:13:26.926Z,24.29
2018-09-24T08:15:52.927Z,24.30
2018-09-24T08:18:18.896Z,24.30
2018-09-24T08:20:44.905Z,24.30
2018-09-24T08:23:10.897Z,24.30
2018-09-24T08:25:36.961Z,24.31
2018-09-24T08:28:02.965Z,24.31
2018-09-24T08:30:28.980Z,24.31
2018-09-24T08:32:54.964Z,24.32
2018-09-24T08:35:20.973Z,24.32
2018-09-24T08:37:46.967Z,24.32
2018-09-24T08:40:12.976Z,24.32
2018-09-24T08:42:38.999Z,24.32
2018-09-24T08:45:05.001Z,24.31
2018-09-24T08:47:31.016Z,24.32
2018-09-24T08:49:56.992Z,24.32
2018-09-24T08:52:23.018Z,24.32
2018-09-24T08:54:49.060Z,24.33
2018-09-24T08:57:15.170Z,24.33
2018-09-24T08:59:41.082Z,24.33
2018-09-24T09:02:07.067Z,24.35
2018-09-24T09:04:33.058Z,24.34
2018-09-24T09:06:59.072Z,24.33
2018-09-24T09:09:25.064Z,24.33
2018-09-24T09:11:51.126Z,24.33
2018-09-24T09:14:17.183Z,24.33
2018-09-24T09:16:43.212Z,24.34
2018-09-24T09:19:09.229Z,24.34
2018-09-24T09:21:35.237Z,24.34
2018-09-24T09:24:01.334Z,24.34
2018-09-24T09:26:27.285Z,24.34
2018-09-24T09:28:53.294Z,24.33
2018-09-24T09:31:19.293Z,24.34
2018-09-24T09:33:45.384Z,24.35
2018-09-24T09:36:11.418Z,24.33
2018-09-24T09:38:37.426Z,24.35
2018-09-24T09:41:03.610Z,24.35
2018-09-24T09:43:29.607Z,24.35
2018-09-24T09:45:55.606Z,24.37
2018-09-24T09:48:21.617Z,24.39
2018-09-24T09:50:47.668Z,24.37
2018-09-24T09:53:13.673Z,24.36
2018-09-24T09:55:39.676Z,24.36
2018-09-24T09:58:05.685Z,24.35
2018-09-24T10:00:31.704Z,24.36
2018-09-24T10:02:57.732Z,24.36
2018-09-24T10:05:23.751Z,24.36
2018-09-24T10:07:49.770Z,24.37
2018-09-24T10:10:15.821Z,24.37
2018-09-24T10:12:41.792Z,24.38
2018-09-24T10:15:07.789Z,24.38
2018-09-24T10:17:33.814Z,24.36
2018-09-24T10:19:59.850Z,24.36
2018-09-24T10:22:25.899Z,24.34
2018-09-24T10:24:51.902Z,24.34
2018-09-24T10:27:18.034Z,24.35
2018-09-24T10:29:44.045Z,24.36
2018-09-24T10:32:10.050Z,24.36
2018-09-24T10:34:36.046Z,24.38
2018-09-24T10:37:02.064Z,24.38
2018-09-24T10:39:28.157Z,24.36
2018-09-24T10:41:54.124Z,24.37
2018-09-24T10:44:20.132Z,24.38
2018-09-24T10:46:46.149Z,24.38
2018-09-24T10:49:12.139Z,24.39
2018-09-24T10:51:38.125Z,24.38
2018-09-24T10:54:04.137Z,24.38
2018-09-24T10:56:30.172Z,24.38
2018-09-24T10:58:56.184Z,24.39
2018-09-24T11:01:22.206Z,24.39
2018-09-24T11:03:48.212Z,24.39
2018-09-24T11:06:14.221Z,24.38
2018-09-24T11:08:40.226Z,24.39
2018-09-24T11:11:06.226Z,24.40
2018-09-24T11:13:32.275Z,24.41
2018-09-24T11:15:58.395Z,24.40
2018-09-24T11:18:24.327Z,24.40
2018-09-24T11:20:50.338Z,24.40
2018-09-24T11:23:16.359Z,24.40
2018-09-24T11:25:42.382Z,24.41
2018-09-24T11:28:08.398Z,24.41
2018-09-24T11:30:34.421Z,24.40
2018-09-24T11:33:00.431Z,24.40
2018-09-24T11:35:26.482Z,24.40
2018-09-24T11:37:52.486Z,24.40
2018-09-24T11:40:18.508Z,24.40
2018-09-24T11:42:44.583Z,24.40
2018-09-24T11:45:10.631Z,24.39
2018-09-24T11:47:36.640Z,24.38
2018-09-24T11:50:02.633Z,24.37
2018-09-24T11:52:28.653Z,24.36
2018-09-24T11:54:54.660Z,24.36
2018-09-24T11:57:20.675Z,24.36
2018-09-24T11:59:46.691Z,24.36
2018-09-24T12:02:12.706Z,24.36
2018-09-24T12:04:38.714Z,24.35
2018-09-24T12:07:04.711Z,24.35
2018-09-24T12:09:30.709Z,24.34
2018-09-24T12:11:56.701Z,24.35
2018-09-24T12:14:22.709Z,24.34
2018-09-24T12:16:48.706Z,24.35
2018-09-24T12:19:14.722Z,24.33
2018-09-24T12:21:40.761Z,24.34
2018-09-24T12:24:06.836Z,24.35
2018-09-24T12:26:32.790Z,24.35
2018-09-24T12:28:58.818Z,24.35
2018-09-24T12:31:24.824Z,24.36
2018-09-24T12:33:50.822Z,24.35
2018-09-24T12:36:16.835Z,24.35
2018-09-24T12:38:42.840Z,24.35
2018-09-24T12:41:08.847Z,24.35
2018-09-24T12:43:34.883Z,24.34
2018-09-24T12:46:00.858Z,24.33
2018-09-24T12:48:26.845Z,24.34
2018-09-24T12:50:52.849Z,24.34
2018-09-24T12:53:18.948Z,24.34
2018-09-24T12:55:44.951Z,24.34
2018-09-24T12:58:10.954Z,24.34
2018-09-24T13:00:36.995Z,24.34
2018-09-24T13:03:03.028Z,24.34
2018-09-24T13:05:29.042Z,24.35
2018-09-24T13:07:55.064Z,24.33
2018-09-24T13:10:21.071Z,24.33
2018-09-24T13:12:47.074Z,24.32
2018-09-24T13:15:13.082Z,24.32
2018-09-24T13:17:39.106Z,24.33
2018-09-24T13:20:05.131Z,24.32
2018-09-24T13:22:31.170Z,24.33
2018-09-24T13:24:57.174Z,24.32
2018-09-24T13:27:23.179Z,24.32
2018-09-24T13:29:49.219Z,24.32
2018-09-24T13:32:15.179Z,24.31
2018-09-24T13:34:41.190Z,24.30
2018-09-24T13:37:07.210Z,24.30
2018-09-24T13:39:33.226Z,24.31
2018-09-24T13:41:59.223Z,24.30
2018-09-24T13:44:25.230Z,24.30
2018-09-24T13:46:51.250Z,24.30
2018-09-24T13:49:17.359Z,24.30
2018-09-24T13:51:43.353Z,24.30
2018-09-24T13:54:09.369Z,24.30
2018-09-24T13:56:35.379Z,24.29
2018-09-24T13:59:01.390Z,24.29
2018-09-24T14:01:27.400Z,24.30
2018-09-24T14:03:53.389Z,24.29
2018-09-24T14:06:19.396Z,24.29
2018-09-24T14:08:45.390Z,24.29
2018-09-24T14:11:11.393Z,24.29
2018-09-24T14:13:37.411Z,24.27
2018-09-24T14:16:03.431Z,24.27
2018-09-24T14:18:29.441Z,24.27
2018-09-24T14:20:55.453Z,24.27
2018-09-24T14:23:21.491Z,24.26
2018-09-24T14:25:47.501Z,24.26
2018-09-24T14:28:13.504Z,24.27
2018-09-24T14:30:39.554Z,24.26
2018-09-24T14:33:05.565Z,24.26
2018-09-24T14:35:31.584Z,24.25
2018-09-24T14:37:57.610Z,24.25
2018-09-24T14:40:23.649Z,24.26
2018-09-24T14:42:49.646Z,24.26
2018-09-24T14:45:15.697Z,24.27
2018-09-24T14:47:41.731Z,24.26
2018-09-24T14:50:07.711Z,24.26
2018-09-24T14:52:33.725Z,24.25
2018-09-24T14:54:59.736Z,24.26
2018-09-24T14:57:25.743Z,24.25
2018-09-24T14:59:51.749Z,24.24
2018-09-24T15:02:17.756Z,24.23
2018-09-24T15:04:43.753Z,24.24
2018-09-24T15:07:09.765Z,24.24
2018-09-24T15:09:35.815Z,24.24
2018-09-24T15:12:01.839Z,24.24
2018-09-24T15:14:27.838Z,24.22
2018-09-24T15:16:53.841Z,24.21
2018-09-24T15:19:19.860Z,24.20
2018-09-24T15:21:45.861Z,24.19
2018-09-24T15:24:11.934Z,24.19
2018-09-24T15:26:37.949Z,24.19
2018-09-24T15:29:03.963Z,24.20
2018-09-24T15:31:29.958Z,24.23
2018-09-24T15:33:55.961Z,24.22
2018-09-24T15:36:21.970Z,24.21
2018-09-24T15:38:47.987Z,24.20
2018-09-24T15:41:14.001Z,24.20
2018-09-24T15:43:40.017Z,24.19
2018-09-24T15:46:06.111Z,24.19
2018-09-24T15:48:32.072Z,24.18
2018-09-24T15:51:02.940Z,24.16
2018-09-24T15:53:27.250Z,24.14
2018-09-24T15:55:53.250Z,24.14
2018-09-24T15:58:19.265Z,24.14
2018-09-24T16:00:45.268Z,24.13
2018-09-24T16:03:11.272Z,24.12
2018-09-24T16:05:37.280Z,24.11
2018-09-24T16:08:03.292Z,24.11
2018-09-24T16:10:29.306Z,24.11
2018-09-24T16:12:55.321Z,24.11
2018-09-24T16:15:21.328Z,24.12
2018-09-24T16:17:47.352Z,24.13
2018-09-24T16:20:13.393Z,24.12
2018-09-24T16:22:39.400Z,24.13
2018-09-24T16:25:05.423Z,24.13
2018-09-24T16:27:31.451Z,24.13
2018-09-24T16:29:57.478Z,24.13
2018-09-24T16:32:23.497Z,24.13
2018-09-24T16:34:49.510Z,24.13
2018-09-24T16:37:15.567Z,24.12
2018-09-24T16:39:42.023Z,24.13
2018-09-24T16:42:10.943Z,24.14
2018-09-24T16:44:38.582Z,24.17
2018-09-24T16:49:40.571Z,24.16
2018-09-24T16:52:09.056Z,24.17
2018-09-24T16:54:35.908Z,24.17
2018-09-24T16:57:17.044Z,24.16
2018-09-24T16:59:46.467Z,24.15
2018-09-24T17:02:12.528Z,24.16
2018-09-24T17:04:41.281Z,24.16
2018-09-24T17:07:07.817Z,24.17
2018-09-24T17:09:34.451Z,24.15
2018-09-24T17:12:03.001Z,24.15
2018-09-24T17:14:29.780Z,24.15
2018-09-24T17:16:56.352Z,24.14
2018-09-24T17:19:22.857Z,24.13
2018-09-24T17:21:49.701Z,24.13
2018-09-24T17:24:16.440Z,24.12
2018-09-24T17:26:43.181Z,24.12
2018-09-24T17:29:09.846Z,24.11
2018-09-24T17:31:36.798Z,24.14
2018-09-24T17:34:03.506Z,24.14
2018-09-24T17:36:31.722Z,24.14
2018-09-24T17:38:58.218Z,24.14
2018-09-24T17:41:24.550Z,24.13
2018-09-24T17:43:51.326Z,24.13
2018-09-24T17:46:18.192Z,24.13
2018-09-24T17:48:47.034Z,24.13
2018-09-24T17:51:13.564Z,24.13
2018-09-24T17:53:40.000Z,24.13
2018-09-24T17:56:06.841Z,24.13
2018-09-24T17:58:33.628Z,24.14
2018-09-24T18:01:00.946Z,24.16
2018-09-24T18:03:28.836Z,24.16
2018-09-24T18:05:54.883Z,24.17
2018-09-24T18:08:20.899Z,24.16
2018-09-24T18:10:47.810Z,24.16
2018-09-24T18:13:14.934Z,24.16
2018-09-24T18:15:40.969Z,24.15
2018-09-24T18:18:07.157Z,24.15
2018-09-24T18:20:33.152Z,24.16
2018-09-24T18:22:59.163Z,24.16
2018-09-24T18:25:25.169Z,24.16
2018-09-24T18:27:51.555Z,24.16
2018-09-24T18:30:17.595Z,24.16
2018-09-24T18:32:43.607Z,24.17
2018-09-24T18:35:09.679Z,24.17
2018-09-24T18:37:35.715Z,24.16
2018-09-24T18:40:01.695Z,24.14
2018-09-24T18:42:27.803Z,24.14
2018-09-24T18:44:53.766Z,24.14
2018-09-24T18:47:19.823Z,24.15
2018-09-24T18:49:51.391Z,24.15
2018-09-24T18:52:13.815Z,24.15
2018-09-24T18:54:39.961Z,24.16
2018-09-24T18:57:05.918Z,24.16
2018-09-24T18:59:31.924Z,24.16
2018-09-24T19:01:58.629Z,24.16
2018-09-24T19:04:27.858Z,24.17
2018-09-24T19:06:54.599Z,24.18
2018-09-24T19:09:21.404Z,24.19
2018-09-24T19:11:48.133Z,24.19
2018-09-24T19:14:14.788Z,24.19
2018-09-24T19:16:40.961Z,24.18
2018-09-24T19:19:06.956Z,24.18
2018-09-24T19:21:33.004Z,24.17
2018-09-24T19:23:59.017Z,24.17
2018-09-24T19:26:25.042Z,24.17
2018-09-24T19:28:51.043Z,24.16
2018-09-24T19:31:19.015Z,24.17
2018-09-24T19:33:45.035Z,24.16
2018-09-24T19:36:11.100Z,24.16
2018-09-24T19:38:37.123Z,24.17
2018-09-24T19:41:03.134Z,24.17
2018-09-24T19:43:29.132Z,24.17
2018-09-24T19:45:55.159Z,24.16
2018-09-24T19:48:21.174Z,24.17
2018-09-24T19:50:47.197Z,24.17
2018-09-24T19:53:13.204Z,24.17
2018-09-24T19:55:39.198Z,24.17
2018-09-24T19:58:05.204Z,24.16
2018-09-24T20:00:31.234Z,24.17
2018-09-24T20:02:57.240Z,24.17
2018-09-24T20:05:23.251Z,24.17
2018-09-24T20:07:49.257Z,24.17
2018-09-24T20:10:15.292Z,24.18
2018-09-24T20:12:41.304Z,24.17
2018-09-24T20:15:07.309Z,24.18
2018-09-24T20:17:33.313Z,24.18
2018-09-24T20:19:59.439Z,24.18
2018-09-24T20:22:25.458Z,24.18
2018-09-24T20:24:51.472Z,24.18
2018-09-24T20:27:17.489Z,24.18
2018-09-24T20:29:43.499Z,24.18
2018-09-24T20:32:09.547Z,24.18
2018-09-24T20:34:35.554Z,24.17
2018-09-24T20:37:01.559Z,24.18
2018-09-24T20:39:27.567Z,24.18
2018-09-24T20:41:53.575Z,24.18
2018-09-24T20:44:19.581Z,24.18
2018-09-24T20:46:45.577Z,24.18
2018-09-24T20:49:11.580Z,24.19
2018-09-24T20:51:37.586Z,24.18
2018-09-24T20:54:03.590Z,24.18
2018-09-24T20:56:29.580Z,24.19
2018-09-24T20:58:55.579Z,24.19
2018-09-24T21:01:21.625Z,24.18
2018-09-24T21:03:47.630Z,24.18
2018-09-24T21:06:13.642Z,24.18
2018-09-24T21:08:39.645Z,24.18
2018-09-24T21:11:05.654Z,24.18
2018-09-24T21:13:31.668Z,24.17
2018-09-24T21:15:57.661Z,24.17
2018-09-24T21:18:23.780Z,24.16
2018-09-24T21:20:49.724Z,24.17
2018-09-24T21:23:15.709Z,24.17
2018-09-24T21:25:41.773Z,24.18
2018-09-24T21:28:07.791Z,24.16
2018-09-24T21:30:33.844Z,24.14
2018-09-24T21:32:59.888Z,24.14
2018-09-24T21:35:25.910Z,24.13
2018-09-24T21:37:51.905Z,24.12
2018-09-24T21:40:17.919Z,24.11
2018-09-24T21:42:43.923Z,24.10
2018-09-24T21:45:09.932Z,24.10
2018-09-24T21:47:35.948Z,24.08
2018-09-24T21:50:01.937Z,24.08
2018-09-24T21:52:27.945Z,24.07
2018-09-24T21:54:53.944Z,24.06
2018-09-24T21:57:19.961Z,24.05
2018-09-24T21:59:45.947Z,24.04
2018-09-24T22:02:11.970Z,24.04
2018-09-24T22:04:37.965Z,24.03
2018-09-24T22:07:03.964Z,24.03
2018-09-24T22:09:29.973Z,24.03
2018-09-24T22:11:55.982Z,24.02
2018-09-24T22:14:21.972Z,24.02
2018-09-24T22:16:48.009Z,24.01
2018-09-24T22:19:14.036Z,24.01
2018-09-24T22:21:40.022Z,24.01
2018-09-24T22:24:06.034Z,24.01
2018-09-24T22:26:32.050Z,24.00
2018-09-24T22:28:58.033Z,24.00
2018-09-24T22:31:24.062Z,24.00
2018-09-24T22:33:50.042Z,23.99
2018-09-24T22:36:16.040Z,23.99
2018-09-24T22:38:42.022Z,23.98
2018-09-24T22:41:08.035Z,23.98
2018-09-24T22:43:34.022Z,23.97
2018-09-24T22:46:00.013Z,23.96
2018-09-24T22:48:25.996Z,23.96
2018-09-24T22:50:51.974Z,23.95
2018-09-24T22:53:17.983Z,23.94
2018-09-24T22:55:44.001Z,23.94
2018-09-24T22:58:10.042Z,23.94
2018-09-24T23:00:36.004Z,23.94
2018-09-24T23:03:02.008Z,23.94
2018-09-24T23:05:28.039Z,23.94
2018-09-24T23:07:54.026Z,23.93
2018-09-24T23:10:20.031Z,23.92
2018-09-24T23:12:46.037Z,23.92
2018-09-24T23:15:12.020Z,23.92
2018-09-24T23:17:38.036Z,23.91
2018-09-24T23:20:04.029Z,23.91
2018-09-24T23:22:30.038Z,23.91
2018-09-24T23:24:56.051Z,23.90
2018-09-24T23:27:22.061Z,23.90
2018-09-24T23:29:48.070Z,23.89
2018-09-24T23:32:14.060Z,23.88
2018-09-24T23:34:40.073Z,23.87
2018-09-24T23:37:06.071Z,23.86
2018-09-24T23:39:32.065Z,23.86
2018-09-24T23:41:58.113Z,23.85
2018-09-24T23:44:24.063Z,23.85
2018-09-24T23:46:50.043Z,23.84
2018-09-24T23:49:16.080Z,23.83
2018-09-24T23:51:42.070Z,23.83
2018-09-24T23:54:08.078Z,23.83
2018-09-24T23:56:34.064Z,23.82
2018-09-24T23:59:00.076Z,23.82
